createdAt,value
2019-04-21T00:02:21.339Z,8.70
2019-04-21T00:04:56.804Z,8.60
2019-04-21T00:07:33.255Z,8.60
2019-04-21T00:10:07.591Z,8.60
2019-04-21T00:12:31.118Z,8.50
2019-04-21T00:14:59.338Z,8.40
2019-04-21T00:17:18.211Z,8.50
2019-04-21T00:20:07.652Z,8.50
2019-04-21T00:22:34.216Z,8.60
2019-04-21T00:25:09.415Z,8.60
2019-04-21T00:27:38.258Z,8.60
2019-04-21T00:30:15.629Z,8.60
2019-04-21T00:32:35.236Z,8.70
2019-04-21T00:35:02.479Z,8.60
2019-04-21T00:37:42.518Z,8.70
2019-04-21T00:40:16.603Z,8.70
2019-04-21T00:42:43.209Z,8.60
2019-04-21T00:45:08.125Z,8.60
2019-04-21T00:47:38.694Z,8.70
2019-04-21T00:50:13.195Z,8.80
2019-04-21T00:52:56.597Z,8.80
2019-04-21T00:55:35.563Z,8.80
2019-04-21T00:58:08.408Z,8.90
2019-04-21T01:00:30.849Z,8.80
2019-04-21T01:03:04.633Z,8.70
2019-04-21T01:05:37.519Z,8.50
2019-04-21T01:07:57.927Z,8.30
2019-04-21T01:10:24.914Z,8.10
2019-04-21T01:13:04.376Z,8.00
2019-04-21T01:15:38.541Z,7.80
2019-04-21T01:18:04.706Z,7.70
2019-04-21T01:20:17.251Z,7.60
2019-04-21T01:22:42.025Z,7.70
2019-04-21T01:25:19.877Z,7.60
2019-04-21T01:27:58.998Z,7.50
2019-04-21T01:30:34.648Z,7.20
2019-04-21T01:33:10.527Z,7.10
2019-04-21T01:35:32.928Z,7.00
2019-04-21T01:38:10.943Z,6.90
2019-04-21T01:40:34.908Z,6.90
2019-04-21T01:43:03.680Z,6.80
2019-04-21T01:45:33.437Z,6.70
2019-04-21T01:48:01.358Z,6.60
2019-04-21T01:50:36.267Z,6.60
2019-04-21T01:53:24.352Z,6.50
2019-04-21T01:55:54.809Z,6.50
2019-04-21T01:58:26.980Z,6.50
2019-04-21T02:01:03.563Z,6.40
2019-04-21T02:06:14.897Z,6.30
2019-04-21T02:08:34.615Z,6.30
2019-04-21T02:11:12.243Z,6.30
2019-04-21T02:13:35.346Z,6.30
2019-04-21T02:16:06.798Z,6.30
2019-04-21T02:18:35.949Z,6.10
2019-04-21T02:20:52.827Z,6.20
2019-04-21T02:23:57.707Z,6.10
2019-04-21T02:26:10.117Z,6.10
2019-04-21T02:28:42.368Z,6.00
2019-04-21T02:31:24.796Z,6.00
2019-04-21T02:33:55.682Z,6.00
2019-04-21T02:41:18.272Z,5.80
2019-04-21T02:43:56.373Z,5.80
2019-04-21T02:46:22.303Z,5.80
2019-04-21T02:49:06.029Z,5.70
2019-04-21T02:51:23.422Z,5.70
2019-04-21T02:54:31.503Z,5.60
2019-04-21T02:58:52.313Z,5.60
2019-04-21T03:01:31.164Z,5.60
2019-04-21T03:03:54.474Z,5.50
2019-04-21T03:06:43.816Z,5.50
2019-04-21T03:08:59.085Z,5.50
2019-04-21T03:11:22.005Z,5.50
2019-04-21T03:16:31.065Z,5.40
2019-04-21T03:18:56.880Z,5.50
2019-04-21T03:21:38.765Z,5.40
2019-04-21T03:26:37.675Z,5.40
2019-04-21T03:29:03.003Z,5.40
2019-04-21T03:31:49.764Z,5.40
2019-04-21T03:38:54.985Z,5.30
2019-04-21T03:41:32.203Z,5.30
2019-04-21T03:43:59.184Z,5.30
2019-04-21T03:49:23.163Z,5.30
2019-04-21T04:01:48.622Z,5.10
2019-04-21T04:14:34.221Z,5.30
2019-04-21T04:19:38.923Z,5.70
2019-04-21T04:24:33.090Z,5.90
2019-04-21T04:26:57.067Z,5.90
2019-04-21T04:29:29.953Z,6.00
2019-04-21T04:31:53.475Z,5.90
2019-04-21T04:34:29.304Z,5.80
2019-04-21T04:37:05.952Z,5.60
2019-04-21T04:42:21.665Z,5.60
2019-04-21T04:54:46.942Z,6.20
2019-04-21T04:57:07.738Z,6.30
2019-04-21T05:02:15.103Z,6.40
2019-04-21T05:04:50.053Z,6.60
2019-04-21T05:09:31.951Z,6.60
2019-04-21T05:11:55.985Z,6.60
2019-04-21T05:14:30.317Z,6.60
2019-04-21T05:22:05.264Z,6.70
2019-04-21T05:24:25.543Z,6.90
2019-04-21T05:26:49.334Z,7.00
2019-04-21T05:29:16.006Z,7.20
2019-04-21T05:32:07.900Z,7.30
2019-04-21T05:34:50.683Z,7.50
2019-04-21T05:37:21.681Z,7.60
2019-04-21T05:39:48.024Z,7.80
2019-04-21T05:42:09.280Z,8.00
2019-04-21T05:44:58.144Z,8.10
2019-04-21T05:47:26.573Z,8.30
2019-04-21T05:49:55.467Z,8.60
2019-04-21T05:52:22.563Z,8.80
2019-04-21T05:57:31.788Z,9.10
2019-04-21T05:59:53.199Z,9.30
2019-04-21T06:02:42.963Z,9.50
2019-04-21T06:07:31.562Z,9.90
2019-04-21T06:09:59.469Z,10.10
2019-04-21T06:12:30.756Z,10.20
2019-04-21T06:15:14.229Z,10.40
2019-04-21T06:20:01.391Z,10.70
2019-04-21T06:22:23.405Z,10.90
2019-04-21T06:30:10.429Z,11.30
2019-04-21T06:35:20.828Z,11.60
2019-04-21T06:40:21.082Z,11.80
2019-04-21T06:42:35.439Z,11.80
2019-04-21T06:45:10.408Z,11.90
2019-04-21T06:47:47.777Z,11.90
2019-04-21T06:50:01.665Z,12.00
2019-04-21T06:52:46.192Z,12.10
2019-04-21T06:55:10.317Z,12.30
2019-04-21T06:57:35.804Z,12.40
2019-04-21T07:00:03.475Z,12.60
2019-04-21T07:03:00.033Z,12.70
2019-04-21T07:05:20.333Z,12.80
2019-04-21T07:07:40.526Z,13.00
2019-04-21T07:10:24.329Z,13.00
2019-04-21T07:12:33.651Z,13.10
2019-04-21T07:15:04.885Z,13.30
2019-04-21T07:17:32.658Z,13.40
2019-04-21T07:20:07.313Z,13.50
2019-04-21T07:22:38.374Z,13.60
2019-04-21T07:25:08.873Z,13.70
2019-04-21T07:27:39.711Z,13.90
2019-04-21T07:30:04.998Z,14.10
2019-04-21T07:32:33.457Z,14.20
2019-04-21T07:37:35.083Z,14.60
2019-04-21T07:40:03.080Z,14.70
2019-04-21T07:42:32.504Z,14.70
2019-04-21T07:44:57.675Z,14.80
2019-04-21T07:47:44.423Z,14.70
2019-04-21T07:50:27.364Z,14.80
2019-04-21T07:53:16.383Z,14.80
2019-04-21T07:58:13.024Z,15.20
2019-04-21T08:03:15.952Z,15.50
2019-04-21T08:05:45.848Z,15.50
2019-04-21T08:08:12.036Z,15.50
2019-04-21T08:10:38.051Z,15.50
2019-04-21T08:13:23.538Z,15.60
2019-04-21T08:15:58.204Z,15.90
2019-04-21T08:18:11.783Z,16.10
2019-04-21T08:20:45.218Z,16.20
2019-04-21T08:23:40.175Z,16.10
2019-04-21T08:25:53.097Z,16.10
2019-04-21T08:28:09.087Z,16.20
2019-04-21T08:30:42.689Z,16.10
2019-04-21T08:33:24.923Z,16.20
2019-04-21T08:36:03.305Z,16.30
2019-04-21T08:38:13.569Z,16.40
2019-04-21T08:40:40.800Z,16.60
2019-04-21T08:43:21.808Z,16.80
2019-04-21T08:45:46.784Z,17.00
2019-04-21T08:48:16.926Z,17.20
2019-04-21T08:50:46.186Z,17.20
2019-04-21T08:53:15.583Z,17.20
2019-04-21T08:55:58.506Z,17.20
2019-04-21T09:00:56.355Z,17.50
2019-04-21T09:03:43.050Z,17.70
2019-04-21T09:06:13.673Z,17.80
2019-04-21T09:08:46.110Z,17.80
2019-04-21T09:11:12.850Z,17.90
2019-04-21T09:13:40.932Z,18.10
2019-04-21T09:16:09.794Z,18.20
2019-04-21T09:18:38.085Z,18.40
2019-04-21T09:21:15.998Z,18.30
2019-04-21T09:23:46.793Z,18.50
2019-04-21T09:26:17.066Z,18.50
2019-04-21T09:28:42.075Z,18.60
2019-04-21T09:30:58.521Z,18.70
2019-04-21T09:33:35.687Z,18.90
2019-04-21T09:36:00.905Z,19.10
2019-04-21T09:38:34.181Z,19.10
2019-04-21T09:40:56.540Z,19.20
2019-04-21T09:43:35.702Z,19.30
2019-04-21T09:45:56.727Z,19.50
2019-04-21T09:48:26.674Z,19.80
2019-04-21T09:50:55.401Z,20.00
2019-04-21T09:53:31.175Z,20.30
2019-04-21T09:55:58.157Z,20.20
2019-04-21T09:58:32.803Z,20.20
2019-04-21T10:01:04.898Z,20.10
2019-04-21T10:03:24.571Z,20.20
2019-04-21T10:05:54.098Z,20.20
2019-04-21T10:08:22.940Z,20.20
2019-04-21T10:10:51.453Z,20.30
2019-04-21T10:13:20.859Z,20.60
2019-04-21T10:15:51.960Z,20.80
2019-04-21T10:18:21.779Z,20.80
2019-04-21T10:20:51.232Z,20.70
2019-04-21T10:23:21.071Z,20.70
2019-04-21T10:25:50.580Z,20.80
2019-04-21T10:28:19.169Z,20.80
2019-04-21T10:30:48.888Z,20.80
2019-04-21T10:33:18.539Z,20.70
2019-04-21T10:35:47.052Z,20.70
2019-04-21T10:38:26.152Z,20.70
2019-04-21T10:40:47.452Z,20.80
2019-04-21T10:43:20.268Z,20.70
2019-04-21T10:45:46.499Z,20.60
2019-04-21T10:48:15.199Z,20.70
2019-04-21T10:50:43.646Z,20.80
2019-04-21T10:53:23.017Z,21.00
2019-04-21T10:56:06.415Z,21.00
2019-04-21T10:58:24.571Z,21.10
2019-04-21T11:01:04.166Z,21.20
2019-04-21T11:03:40.539Z,21.20
2019-04-21T11:06:10.616Z,21.50
2019-04-21T11:08:45.024Z,21.20
2019-04-21T11:11:10.015Z,21.40
2019-04-21T11:13:38.937Z,21.50
2019-04-21T11:16:08.749Z,21.50
2019-04-21T11:18:37.787Z,21.40
2019-04-21T11:21:07.012Z,21.40
2019-04-21T11:23:56.129Z,21.30
2019-04-21T11:26:24.913Z,21.50
2019-04-21T11:28:54.812Z,21.60
2019-04-21T11:31:24.931Z,21.70
2019-04-21T11:33:53.548Z,21.80
2019-04-21T11:36:22.091Z,21.70
2019-04-21T11:39:21.050Z,21.70
2019-04-21T11:41:39.403Z,21.80
2019-04-21T11:44:08.078Z,21.90
2019-04-21T11:46:36.582Z,22.00
2019-04-21T11:49:06.306Z,22.10
2019-04-21T11:51:35.227Z,22.00
2019-04-21T11:54:04.641Z,22.10
2019-04-21T11:56:33.129Z,22.20
2019-04-21T11:59:01.761Z,22.30
2019-04-21T12:01:31.542Z,22.30
2019-04-21T12:04:00.475Z,22.20
2019-04-21T12:06:37.222Z,22.10
2019-04-21T12:09:01.234Z,22.20
2019-04-21T12:11:29.575Z,22.40
2019-04-21T12:13:58.482Z,22.40
2019-04-21T12:16:27.016Z,22.60
2019-04-21T12:18:56.693Z,22.80
2019-04-21T12:21:28.334Z,22.70
2019-04-21T12:23:56.616Z,22.70
2019-04-21T12:26:26.404Z,22.80
2019-04-21T12:28:55.841Z,22.80
2019-04-21T12:31:29.763Z,22.70
2019-04-21T12:34:00.289Z,22.70
2019-04-21T12:36:29.618Z,22.60
2019-04-21T12:39:01.163Z,23.00
2019-04-21T12:41:28.780Z,23.10
2019-04-21T12:43:57.309Z,23.20
2019-04-21T12:46:25.902Z,23.50
2019-04-21T12:48:55.592Z,23.50
2019-04-21T12:51:24.310Z,23.20
2019-04-21T12:53:54.022Z,23.30
2019-04-21T12:56:23.420Z,23.30
2019-04-21T12:58:53.197Z,23.60
2019-04-21T13:01:23.078Z,23.60
2019-04-21T13:03:52.113Z,23.80
2019-04-21T13:06:21.395Z,23.90
2019-04-21T13:08:58.887Z,24.00
2019-04-21T13:11:21.357Z,24.20
2019-04-21T13:13:50.255Z,24.20
2019-04-21T13:16:19.276Z,24.00
2019-04-21T13:18:49.137Z,24.00
2019-04-21T13:21:18.143Z,23.90
2019-04-21T13:23:47.196Z,23.90
2019-04-21T13:26:27.073Z,23.90
2019-04-21T13:28:45.941Z,23.80
2019-04-21T13:31:14.348Z,23.90
2019-04-21T13:33:43.971Z,24.00
2019-04-21T13:36:13.767Z,23.80
2019-04-21T13:39:13.679Z,23.90
2019-04-21T13:41:29.647Z,23.70
2019-04-21T13:43:47.416Z,23.90
2019-04-21T13:46:15.933Z,24.20
2019-04-21T13:48:44.592Z,24.00
2019-04-21T13:51:13.459Z,23.90
2019-04-21T13:53:42.035Z,24.20
2019-04-21T13:56:10.770Z,24.60
2019-04-21T13:58:40.122Z,24.80
2019-04-21T14:01:09.653Z,25.20
2019-04-21T14:03:39.600Z,25.40
2019-04-21T14:06:08.536Z,26.00
2019-04-21T14:08:40.146Z,26.90
2019-04-21T14:11:07.307Z,26.80
2019-04-21T14:13:36.459Z,27.50
2019-04-21T14:16:06.239Z,28.40
2019-04-21T14:18:34.741Z,28.20
2019-04-21T14:21:05.046Z,27.80
2019-04-21T14:23:40.813Z,28.30
2019-04-21T14:26:04.037Z,27.90
2019-04-21T14:28:33.435Z,28.10
2019-04-21T14:31:02.346Z,28.20
2019-04-21T14:33:31.919Z,27.90
2019-04-21T14:36:00.965Z,28.30
2019-04-21T14:38:29.500Z,29.00
2019-04-21T14:40:58.097Z,28.80
2019-04-21T14:43:27.710Z,29.10
2019-04-21T14:45:58.961Z,29.60
2019-04-21T14:48:45.628Z,29.00
2019-04-21T14:51:16.840Z,29.70
2019-04-21T14:53:56.341Z,28.90
2019-04-21T14:56:25.343Z,28.30
2019-04-21T14:58:56.844Z,28.80
2019-04-21T15:01:24.076Z,29.30
2019-04-21T15:03:52.495Z,29.20
2019-04-21T15:06:21.235Z,28.80
2019-04-21T15:08:51.101Z,28.40
2019-04-21T15:11:20.013Z,28.60
2019-04-21T15:13:49.849Z,28.80
2019-04-21T15:16:20.783Z,29.00
2019-04-21T15:18:50.496Z,29.10
2019-04-21T15:21:19.426Z,28.90
2019-04-21T15:23:48.460Z,28.50
2019-04-21T15:26:18.028Z,28.20
2019-04-21T15:28:46.871Z,27.90
2019-04-21T15:31:24.151Z,28.60
2019-04-21T15:33:45.506Z,28.90
2019-04-21T15:36:15.054Z,29.50
2019-04-21T15:38:45.672Z,29.00
2019-04-21T15:41:14.528Z,28.80
2019-04-21T15:43:44.654Z,28.90
2019-04-21T15:46:13.368Z,28.40
2019-04-21T15:48:41.844Z,28.00
2019-04-21T15:51:11.137Z,27.80
2019-04-21T15:53:41.761Z,27.60
2019-04-21T15:56:12.982Z,27.60
2019-04-21T15:58:55.061Z,27.80
2019-04-21T16:01:28.265Z,27.50
2019-04-21T16:03:59.189Z,27.70
2019-04-21T16:06:27.750Z,28.20
2019-04-21T16:08:59.235Z,28.10
2019-04-21T16:11:26.345Z,27.30
2019-04-21T16:13:55.469Z,27.00
2019-04-21T16:16:26.731Z,27.40
2019-04-21T16:18:54.337Z,27.40
2019-04-21T16:21:24.230Z,27.50
2019-04-21T16:23:54.134Z,27.40
2019-04-21T16:26:22.688Z,26.30
2019-04-21T16:28:51.239Z,26.20
2019-04-21T16:31:20.419Z,26.00
2019-04-21T16:33:49.209Z,26.00
2019-04-21T16:36:18.424Z,26.30
2019-04-21T16:38:49.280Z,26.20
2019-04-21T16:41:18.262Z,26.20
2019-04-21T16:43:47.143Z,26.30
2019-04-21T16:46:15.816Z,25.80
2019-04-21T16:48:44.376Z,25.70
2019-04-21T16:51:13.211Z,25.90
2019-04-21T16:53:43.923Z,25.90
2019-04-21T16:56:15.273Z,25.60
2019-04-21T16:58:45.462Z,25.50
2019-04-21T17:01:18.194Z,25.20
2019-04-21T17:03:46.421Z,24.90
2019-04-21T17:06:15.304Z,24.80
2019-04-21T17:08:44.911Z,24.60
2019-04-21T17:11:19.400Z,24.80
2019-04-21T17:13:43.744Z,24.50
2019-04-21T17:16:40.268Z,24.50
2019-04-21T17:18:56.293Z,24.60
2019-04-21T17:21:13.213Z,24.50
2019-04-21T17:23:43.894Z,24.60
2019-04-21T17:26:13.206Z,24.40
2019-04-21T17:28:42.647Z,24.00
2019-04-21T17:31:12.791Z,23.20
2019-04-21T17:33:41.456Z,22.80
2019-04-21T17:36:11.215Z,22.20
2019-04-21T17:38:40.023Z,21.70
2019-04-21T17:41:19.924Z,21.30
2019-04-21T17:43:39.578Z,21.00
2019-04-21T17:46:09.029Z,20.80
2019-04-21T17:51:15.068Z,20.20
2019-04-21T17:53:53.764Z,20.00
2019-04-21T17:56:52.273Z,19.90
2019-04-21T17:59:13.884Z,19.70
2019-04-21T18:01:45.629Z,19.50
2019-04-21T18:04:14.878Z,19.40
2019-04-21T18:06:39.339Z,19.20
2019-04-21T18:09:24.331Z,19.00
2019-04-21T18:11:46.256Z,18.90
2019-04-21T18:13:55.614Z,18.80
2019-04-21T18:16:31.544Z,18.70
2019-04-21T18:18:55.112Z,18.50
2019-04-21T18:21:46.924Z,18.40
2019-04-21T18:24:20.925Z,18.40
2019-04-21T18:26:52.189Z,18.30
2019-04-21T18:29:17.831Z,18.20
2019-04-21T18:31:50.187Z,18.00
2019-04-21T18:34:27.371Z,18.10
2019-04-21T18:36:58.873Z,18.20
2019-04-21T18:39:47.101Z,18.00
2019-04-21T18:42:26.360Z,17.80
2019-04-21T18:48:01.385Z,17.50
2019-04-21T18:50:31.636Z,17.30
2019-04-21T18:53:16.593Z,17.20
2019-04-21T18:55:43.277Z,17.00
2019-04-21T18:58:11.622Z,16.80
2019-04-21T19:00:40.520Z,16.80
2019-04-21T19:03:11.483Z,16.60
2019-04-21T19:05:45.724Z,16.50
2019-04-21T19:08:26.376Z,16.50
2019-04-21T19:11:05.438Z,16.40
2019-04-21T19:13:41.550Z,16.40
2019-04-21T19:16:22.830Z,16.30
2019-04-21T19:20:55.388Z,16.20
2019-04-21T19:23:41.723Z,16.10
2019-04-21T19:26:11.028Z,15.90
2019-04-21T19:28:26.966Z,15.80
2019-04-21T19:31:04.342Z,15.70
2019-04-21T19:33:27.338Z,15.70
2019-04-21T19:35:41.514Z,15.50
2019-04-21T19:38:12.648Z,15.40
2019-04-21T19:40:53.490Z,15.30
2019-04-21T19:43:31.446Z,15.30
2019-04-21T19:45:54.089Z,15.30
2019-04-21T19:48:28.030Z,15.30
2019-04-21T19:51:01.322Z,15.20
2019-04-21T19:53:25.331Z,15.20
2019-04-21T19:55:42.411Z,15.20
2019-04-21T19:58:11.018Z,15.10
2019-04-21T20:00:40.217Z,15.00
2019-04-21T20:03:10.126Z,14.90
2019-04-21T20:05:46.704Z,14.90
2019-04-21T20:08:23.323Z,14.80
2019-04-21T20:10:55.319Z,14.80
2019-04-21T20:13:41.929Z,14.70
2019-04-21T20:15:57.205Z,14.60
2019-04-21T20:18:22.280Z,14.50
2019-04-21T20:20:41.112Z,14.50
2019-04-21T20:23:19.301Z,14.40
2019-04-21T20:25:47.209Z,14.30
2019-04-21T20:28:21.189Z,14.20
2019-04-21T20:30:59.575Z,14.10
2019-04-21T20:36:03.345Z,14.10
2019-04-21T20:38:19.060Z,14.10
2019-04-21T20:40:51.104Z,14.10
2019-04-21T20:43:33.726Z,14.00
2019-04-21T20:48:21.074Z,13.90
2019-04-21T20:51:01.832Z,13.80
2019-04-21T20:53:25.941Z,13.80
2019-04-21T20:55:52.761Z,13.70
2019-04-21T20:58:28.026Z,13.70
2019-04-21T21:03:33.617Z,13.70
2019-04-21T21:05:54.421Z,13.60
2019-04-21T21:08:29.508Z,13.70
2019-04-21T21:10:57.455Z,13.70
2019-04-21T21:13:31.982Z,13.80
2019-04-21T21:16:10.521Z,13.80
2019-04-21T21:18:52.098Z,13.70
2019-04-21T21:20:58.979Z,13.70
2019-04-21T21:23:33.504Z,13.70
2019-04-21T21:26:01.896Z,13.60
2019-04-21T21:28:28.984Z,13.60
2019-04-21T21:31:02.738Z,13.60
2019-04-21T21:33:27.629Z,13.60
2019-04-21T21:36:06.474Z,13.70
2019-04-21T21:38:31.170Z,13.60
2019-04-21T21:40:58.746Z,13.60
2019-04-21T21:43:19.929Z,13.70
2019-04-21T21:45:49.977Z,13.70
2019-04-21T21:48:36.659Z,13.60
2019-04-21T21:50:59.008Z,13.70
2019-04-21T21:53:21.557Z,13.70
2019-04-21T21:55:46.856Z,13.60
2019-04-21T21:58:19.393Z,13.60
2019-04-21T22:00:49.869Z,13.60
2019-04-21T22:03:24.419Z,13.50
2019-04-21T22:05:56.284Z,13.50
2019-04-21T22:08:18.425Z,13.40
2019-04-21T22:10:47.399Z,13.30
2019-04-21T22:13:19.730Z,13.40
2019-04-21T22:15:49.348Z,13.50
2019-04-21T22:18:36.298Z,13.40
2019-04-21T22:21:06.576Z,13.40
2019-04-21T22:23:30.513Z,13.40
2019-04-21T22:25:47.507Z,13.20
2019-04-21T22:28:16.156Z,13.10
2019-04-21T22:30:48.253Z,13.00
2019-04-21T22:33:18.117Z,13.00
2019-04-21T22:35:53.282Z,12.90
2019-04-21T22:38:28.630Z,12.80
2019-04-21T22:40:58.034Z,12.80
2019-04-21T22:43:22.937Z,12.70
2019-04-21T22:45:47.248Z,12.50
2019-04-21T22:48:19.575Z,12.30
2019-04-21T22:50:46.591Z,12.10
2019-04-21T22:53:17.214Z,12.00
2019-04-21T22:55:49.546Z,11.80
2019-04-21T22:58:23.617Z,11.60
2019-04-21T23:00:52.819Z,11.50
2019-04-21T23:03:22.451Z,11.40
2019-04-21T23:05:48.402Z,11.30
2019-04-21T23:08:17.134Z,11.20
2019-04-21T23:10:49.634Z,11.20
2019-04-21T23:13:20.305Z,11.20
2019-04-21T23:15:53.237Z,11.20
2019-04-21T23:18:33.127Z,11.20
2019-04-21T23:21:03.313Z,11.20
2019-04-21T23:23:43.047Z,11.20
2019-04-21T23:26:09.032Z,11.20
2019-04-21T23:28:40.471Z,11.00
2019-04-21T23:31:08.420Z,11.00
2019-04-21T23:33:20.075Z,10.90
2019-04-21T23:35:49.387Z,10.90
2019-04-21T23:38:27.349Z,11.00
2019-04-21T23:40:55.822Z,11.00
2019-04-21T23:43:23.883Z,10.90
2019-04-21T23:45:49.901Z,10.90
2019-04-21T23:48:32.447Z,10.90
2019-04-21T23:50:55.041Z,10.90
2019-04-21T23:53:19.679Z,10.80
2019-04-21T23:55:49.416Z,10.80
2019-04-21T23:58:24.083Z,10.70
